sensor_id;sensor_type;location;lat;lon;timestamp;P1;durP1;ratioP1;P2;durP2;ratioP2
24153;SDS011;12312;53.362;-1.518;2023-02-13T00:00:46;26.60;;;15.90;;
24153;SDS011;12312;53.362;-1.518;2023-02-13T00:03:12;29.80;;;16.15;;
24153;SDS011;12312;53.362;-1.518;2023-02-13T00:05:38;23.70;;;15.63;;
24153;SDS011;12312;53.362;-1.518;2023-02-13T00:08:04;26.52;;;15.35;;
24153;SDS011;12312;53.362;-1.518;2023-02-13T00:10:30;23.35;;;15.02;;
24153;SDS011;12312;53.362;-1.518;2023-02-13T00:12:55;22.90;;;15.10;;
24153;SDS011;12312;53.362;-1.518;2023-02-13T00:15:21;18.33;;;13.32;;
24153;SDS011;12312;53.362;-1.518;2023-02-13T00:17:46;22.30;;;14.25;;
24153;SDS011;12312;53.362;-1.518;2023-02-13T00:20:11;21.85;;;14.07;;
24153;SDS011;12312;53.362;-1.518;2023-02-13T00:22:37;21.45;;;14.02;;
24153;SDS011;12312;53.362;-1.518;2023-02-13T00:25:04;23.10;;;13.48;;
24153;SDS011;12312;53.362;-1.518;2023-02-13T00:27:31;24.42;;;15.07;;
24153;SDS011;12312;53.362;-1.518;2023-02-13T00:29:56;24.17;;;14.38;;
24153;SDS011;12312;53.362;-1.518;2023-02-13T00:32:23;24.17;;;15.10;;
24153;SDS011;12312;53.362;-1.518;2023-02-13T00:34:49;21.33;;;14.32;;
24153;SDS011;12312;53.362;-1.518;2023-02-13T00:37:15;23.25;;;15.57;;
24153;SDS011;12312;53.362;-1.518;2023-02-13T00:39:40;24.00;;;15.02;;
24153;SDS011;12312;53.362;-1.518;2023-02-13T00:42:06;20.15;;;13.95;;
24153;SDS011;12312;53.362;-1.518;2023-02-13T00:44:32;23.38;;;14.18;;
24153;SDS011;12312;53.362;-1.518;2023-02-13T00:46:57;20.85;;;13.77;;
24153;SDS011;12312;53.362;-1.518;2023-02-13T00:49:23;25.65;;;15.38;;
24153;SDS011;12312;53.362;-1.518;2023-02-13T00:51:49;21.23;;;14.18;;
24153;SDS011;12312;53.362;-1.518;2023-02-13T00:54:15;21.73;;;14.30;;
24153;SDS011;12312;53.362;-1.518;2023-02-13T00:56:40;22.13;;;14.27;;
24153;SDS011;12312;53.362;-1.518;2023-02-13T00:59:06;20.92;;;13.73;;
24153;SDS011;12312;53.362;-1.518;2023-02-13T01:01:32;21.70;;;14.25;;
24153;SDS011;12312;53.362;-1.518;2023-02-13T01:03:57;25.02;;;14.75;;
24153;SDS011;12312;53.362;-1.518;2023-02-13T01:06:23;24.38;;;14.25;;
24153;SDS011;12312;53.362;-1.518;2023-02-13T01:08:49;25.40;;;15.10;;
24153;SDS011;12312;53.362;-1.518;2023-02-13T01:11:15;23.60;;;14.30;;
24153;SDS011;12312;53.362;-1.518;2023-02-13T01:13:43;21.33;;;13.82;;
24153;SDS011;12312;53.362;-1.518;2023-02-13T01:16:09;24.42;;;14.55;;
24153;SDS011;12312;53.362;-1.518;2023-02-13T01:18:34;23.23;;;14.23;;
24153;SDS011;12312;53.362;-1.518;2023-02-13T01:21:01;25.88;;;14.70;;
24153;SDS011;12312;53.362;-1.518;2023-02-13T01:23:32;22.90;;;13.68;;
24153;SDS011;12312;53.362;-1.518;2023-02-13T01:26:02;25.50;;;15.15;;
24153;SDS011;12312;53.362;-1.518;2023-02-13T01:28:29;20.63;;;13.50;;
24153;SDS011;12312;53.362;-1.518;2023-02-13T01:30:55;27.52;;;16.15;;
24153;SDS011;12312;53.362;-1.518;2023-02-13T01:33:22;26.58;;;15.80;;
24153;SDS011;12312;53.362;-1.518;2023-02-13T01:35:49;26.88;;;16.35;;
24153;SDS011;12312;53.362;-1.518;2023-02-13T01:38:14;25.02;;;15.95;;
24153;SDS011;12312;53.362;-1.518;2023-02-13T01:40:48;25.05;;;15.30;;
24153;SDS011;12312;53.362;-1.518;2023-02-13T01:43:18;22.90;;;14.93;;
24153;SDS011;12312;53.362;-1.518;2023-02-13T01:45:44;26.15;;;15.02;;
24153;SDS011;12312;53.362;-1.518;2023-02-13T01:48:14;26.25;;;15.05;;
24153;SDS011;12312;53.362;-1.518;2023-02-13T01:50:45;28.35;;;14.88;;
24153;SDS011;12312;53.362;-1.518;2023-02-13T01:56:04;25.25;;;15.70;;
24153;SDS011;12312;53.362;-1.518;2023-02-13T01:58:45;26.75;;;16.65;;
24153;SDS011;12312;53.362;-1.518;2023-02-13T02:01:13;25.88;;;14.93;;
24153;SDS011;12312;53.362;-1.518;2023-02-13T02:06:05;27.58;;;16.33;;
24153;SDS011;12312;53.362;-1.518;2023-02-13T02:08:35;29.67;;;16.42;;
24153;SDS011;12312;53.362;-1.518;2023-02-13T02:14:23;30.10;;;17.38;;
24153;SDS011;12312;53.362;-1.518;2023-02-13T02:16:50;29.35;;;18.55;;
24153;SDS011;12312;53.362;-1.518;2023-02-13T02:33:17;30.10;;;19.15;;
24153;SDS011;12312;53.362;-1.518;2023-02-13T02:36:10;30.63;;;17.13;;
24153;SDS011;12312;53.362;-1.518;2023-02-13T02:41:48;32.13;;;19.00;;
24153;SDS011;12312;53.362;-1.518;2023-02-13T02:56:11;33.05;;;19.42;;
24153;SDS011;12312;53.362;-1.518;2023-02-13T02:58:32;33.92;;;19.65;;
24153;SDS011;12312;53.362;-1.518;2023-02-13T03:01:26;34.22;;;19.77;;
24153;SDS011;12312;53.362;-1.518;2023-02-13T03:04:23;34.95;;;20.27;;
24153;SDS011;12312;53.362;-1.518;2023-02-13T03:07:13;36.55;;;19.95;;
24153;SDS011;12312;53.362;-1.518;2023-02-13T03:09:51;33.80;;;20.13;;
24153;SDS011;12312;53.362;-1.518;2023-02-13T03:12:58;35.72;;;20.30;;
24153;SDS011;12312;53.362;-1.518;2023-02-13T03:15:45;37.28;;;21.20;;
24153;SDS011;12312;53.362;-1.518;2023-02-13T03:18:34;32.22;;;21.00;;
24153;SDS011;12312;53.362;-1.518;2023-02-13T03:21:33;32.30;;;19.55;;
24153;SDS011;12312;53.362;-1.518;2023-02-13T03:26:59;35.55;;;20.83;;
24153;SDS011;12312;53.362;-1.518;2023-02-13T03:41:49;27.17;;;16.48;;
24153;SDS011;12312;53.362;-1.518;2023-02-13T03:44:33;26.02;;;16.05;;
24153;SDS011;12312;53.362;-1.518;2023-02-13T03:47:11;23.95;;;15.15;;
24153;SDS011;12312;53.362;-1.518;2023-02-13T03:49:47;22.75;;;13.95;;
24153;SDS011;12312;53.362;-1.518;2023-02-13T03:55:15;22.98;;;13.38;;
24153;SDS011;12312;53.362;-1.518;2023-02-13T03:58:07;21.90;;;13.77;;
24153;SDS011;12312;53.362;-1.518;2023-02-13T04:00:56;20.10;;;12.70;;
24153;SDS011;12312;53.362;-1.518;2023-02-13T04:03:26;21.20;;;13.65;;
24153;SDS011;12312;53.362;-1.518;2023-02-13T04:06:05;24.73;;;15.45;;
24153;SDS011;12312;53.362;-1.518;2023-02-13T04:08:39;21.38;;;13.30;;
24153;SDS011;12312;53.362;-1.518;2023-02-13T04:11:10;22.13;;;13.95;;
24153;SDS011;12312;53.362;-1.518;2023-02-13T04:13:47;22.63;;;12.93;;
24153;SDS011;12312;53.362;-1.518;2023-02-13T04:19:21;20.20;;;13.15;;
24153;SDS011;12312;53.362;-1.518;2023-02-13T04:21:54;23.15;;;13.20;;
24153;SDS011;12312;53.362;-1.518;2023-02-13T04:24:21;21.33;;;13.10;;
24153;SDS011;12312;53.362;-1.518;2023-02-13T04:26:46;22.00;;;12.80;;
24153;SDS011;12312;53.362;-1.518;2023-02-13T04:29:12;22.70;;;13.32;;
24153;SDS011;12312;53.362;-1.518;2023-02-13T04:31:37;20.52;;;12.98;;
24153;SDS011;12312;53.362;-1.518;2023-02-13T04:34:04;22.20;;;13.10;;
24153;SDS011;12312;53.362;-1.518;2023-02-13T04:36:29;24.65;;;14.82;;
24153;SDS011;12312;53.362;-1.518;2023-02-13T04:38:55;23.95;;;13.85;;
24153;SDS011;12312;53.362;-1.518;2023-02-13T04:41:24;25.13;;;14.00;;
24153;SDS011;12312;53.362;-1.518;2023-02-13T04:43:50;26.60;;;14.40;;
24153;SDS011;12312;53.362;-1.518;2023-02-13T04:46:16;26.70;;;14.15;;
24153;SDS011;12312;53.362;-1.518;2023-02-13T04:48:42;23.52;;;13.55;;
24153;SDS011;12312;53.362;-1.518;2023-02-13T04:51:09;27.42;;;14.18;;
24153;SDS011;12312;53.362;-1.518;2023-02-13T04:53:34;26.25;;;14.52;;
24153;SDS011;12312;53.362;-1.518;2023-02-13T04:56:00;29.20;;;16.40;;
24153;SDS011;12312;53.362;-1.518;2023-02-13T04:58:25;30.95;;;16.98;;
24153;SDS011;12312;53.362;-1.518;2023-02-13T05:00:51;30.85;;;16.35;;
24153;SDS011;12312;53.362;-1.518;2023-02-13T05:03:19;34.55;;;17.92;;
24153;SDS011;12312;53.362;-1.518;2023-02-13T05:05:45;36.60;;;19.08;;
24153;SDS011;12312;53.362;-1.518;2023-02-13T05:08:12;36.40;;;18.35;;
24153;SDS011;12312;53.362;-1.518;2023-02-13T05:10:38;36.85;;;18.02;;
24153;SDS011;12312;53.362;-1.518;2023-02-13T05:13:04;46.40;;;23.35;;
24153;SDS011;12312;53.362;-1.518;2023-02-13T05:15:29;41.47;;;21.35;;
24153;SDS011;12312;53.362;-1.518;2023-02-13T05:17:55;38.10;;;19.65;;
24153;SDS011;12312;53.362;-1.518;2023-02-13T05:20:20;36.72;;;20.05;;
24153;SDS011;12312;53.362;-1.518;2023-02-13T05:22:46;43.08;;;21.10;;
24153;SDS011;12312;53.362;-1.518;2023-02-13T05:25:34;44.83;;;21.27;;
24153;SDS011;12312;53.362;-1.518;2023-02-13T05:28:04;47.53;;;22.75;;
24153;SDS011;12312;53.362;-1.518;2023-02-13T05:30:49;42.85;;;21.02;;
24153;SDS011;12312;53.362;-1.518;2023-02-13T05:33:15;41.10;;;19.85;;
24153;SDS011;12312;53.362;-1.518;2023-02-13T05:35:40;36.13;;;18.00;;
24153;SDS011;12312;53.362;-1.518;2023-02-13T05:38:06;38.47;;;19.38;;
24153;SDS011;12312;53.362;-1.518;2023-02-13T05:40:31;34.13;;;18.50;;
24153;SDS011;12312;53.362;-1.518;2023-02-13T05:42:56;39.35;;;18.98;;
24153;SDS011;12312;53.362;-1.518;2023-02-13T05:45:22;32.55;;;16.98;;
24153;SDS011;12312;53.362;-1.518;2023-02-13T05:47:47;36.80;;;18.20;;
24153;SDS011;12312;53.362;-1.518;2023-02-13T05:50:13;36.13;;;17.65;;
24153;SDS011;12312;53.362;-1.518;2023-02-13T05:52:39;34.92;;;17.67;;
24153;SDS011;12312;53.362;-1.518;2023-02-13T05:55:04;33.67;;;17.48;;
24153;SDS011;12312;53.362;-1.518;2023-02-13T05:57:30;37.60;;;18.73;;
24153;SDS011;12312;53.362;-1.518;2023-02-13T05:59:55;35.35;;;17.92;;
24153;SDS011;12312;53.362;-1.518;2023-02-13T06:02:22;36.70;;;18.08;;
24153;SDS011;12312;53.362;-1.518;2023-02-13T06:04:47;35.40;;;17.17;;
24153;SDS011;12312;53.362;-1.518;2023-02-13T06:07:13;34.00;;;17.38;;
24153;SDS011;12312;53.362;-1.518;2023-02-13T06:09:38;39.38;;;16.52;;
24153;SDS011;12312;53.362;-1.518;2023-02-13T06:12:04;37.05;;;16.83;;
24153;SDS011;12312;53.362;-1.518;2023-02-13T06:14:30;37.38;;;16.63;;
24153;SDS011;12312;53.362;-1.518;2023-02-13T06:16:55;39.22;;;18.98;;
24153;SDS011;12312;53.362;-1.518;2023-02-13T06:19:20;37.38;;;18.45;;
24153;SDS011;12312;53.362;-1.518;2023-02-13T06:21:46;38.53;;;17.80;;
24153;SDS011;12312;53.362;-1.518;2023-02-13T06:24:12;36.72;;;17.80;;
24153;SDS011;12312;53.362;-1.518;2023-02-13T06:26:38;37.47;;;17.45;;
24153;SDS011;12312;53.362;-1.518;2023-02-13T06:29:03;38.15;;;18.42;;
24153;SDS011;12312;53.362;-1.518;2023-02-13T06:31:28;37.42;;;17.73;;
24153;SDS011;12312;53.362;-1.518;2023-02-13T06:33:54;42.88;;;18.52;;
24153;SDS011;12312;53.362;-1.518;2023-02-13T06:36:20;37.97;;;17.05;;
24153;SDS011;12312;53.362;-1.518;2023-02-13T06:38:45;41.63;;;17.90;;
24153;SDS011;12312;53.362;-1.518;2023-02-13T06:41:10;41.10;;;19.40;;
24153;SDS011;12312;53.362;-1.518;2023-02-13T06:43:37;42.92;;;18.75;;
24153;SDS011;12312;53.362;-1.518;2023-02-13T06:46:06;41.45;;;18.88;;
24153;SDS011;12312;53.362;-1.518;2023-02-13T06:48:32;38.78;;;18.10;;
24153;SDS011;12312;53.362;-1.518;2023-02-13T06:50:58;43.38;;;18.25;;
24153;SDS011;12312;53.362;-1.518;2023-02-13T06:53:28;41.15;;;19.13;;
24153;SDS011;12312;53.362;-1.518;2023-02-13T06:55:55;38.30;;;19.20;;
24153;SDS011;12312;53.362;-1.518;2023-02-13T06:58:49;39.35;;;17.83;;
24153;SDS011;12312;53.362;-1.518;2023-02-13T07:01:14;41.95;;;18.90;;
24153;SDS011;12312;53.362;-1.518;2023-02-13T07:03:40;36.45;;;17.13;;
24153;SDS011;12312;53.362;-1.518;2023-02-13T07:06:05;43.13;;;18.92;;
24153;SDS011;12312;53.362;-1.518;2023-02-13T07:08:32;41.17;;;18.70;;
24153;SDS011;12312;53.362;-1.518;2023-02-13T07:10:58;40.47;;;17.77;;
24153;SDS011;12312;53.362;-1.518;2023-02-13T07:13:29;50.40;;;21.98;;
24153;SDS011;12312;53.362;-1.518;2023-02-13T07:15:58;47.53;;;20.88;;
24153;SDS011;12312;53.362;-1.518;2023-02-13T07:18:25;47.17;;;20.67;;
24153;SDS011;12312;53.362;-1.518;2023-02-13T07:20:50;43.28;;;19.77;;
24153;SDS011;12312;53.362;-1.518;2023-02-13T07:23:16;47.17;;;20.65;;
24153;SDS011;12312;53.362;-1.518;2023-02-13T07:25:41;52.45;;;24.23;;
24153;SDS011;12312;53.362;-1.518;2023-02-13T07:28:07;56.40;;;23.33;;
24153;SDS011;12312;53.362;-1.518;2023-02-13T07:30:34;53.88;;;24.42;;
24153;SDS011;12312;53.362;-1.518;2023-02-13T07:33:00;56.30;;;24.15;;
24153;SDS011;12312;53.362;-1.518;2023-02-13T07:35:26;49.80;;;23.88;;
24153;SDS011;12312;53.362;-1.518;2023-02-13T07:37:52;53.08;;;23.65;;
24153;SDS011;12312;53.362;-1.518;2023-02-13T07:40:18;57.92;;;24.17;;
24153;SDS011;12312;53.362;-1.518;2023-02-13T07:42:44;52.42;;;24.25;;
24153;SDS011;12312;53.362;-1.518;2023-02-13T07:45:10;47.92;;;22.38;;
24153;SDS011;12312;53.362;-1.518;2023-02-13T07:47:36;52.80;;;22.20;;
24153;SDS011;12312;53.362;-1.518;2023-02-13T07:50:02;52.65;;;22.92;;
24153;SDS011;12312;53.362;-1.518;2023-02-13T07:52:30;48.50;;;21.95;;
24153;SDS011;12312;53.362;-1.518;2023-02-13T07:54:57;50.75;;;22.10;;
24153;SDS011;12312;53.362;-1.518;2023-02-13T07:57:22;51.60;;;21.55;;
24153;SDS011;12312;53.362;-1.518;2023-02-13T07:59:48;51.30;;;21.95;;
24153;SDS011;12312;53.362;-1.518;2023-02-13T08:02:14;48.20;;;21.35;;
24153;SDS011;12312;53.362;-1.518;2023-02-13T08:04:40;50.88;;;22.02;;
24153;SDS011;12312;53.362;-1.518;2023-02-13T08:07:10;48.35;;;21.02;;
24153;SDS011;12312;53.362;-1.518;2023-02-13T08:09:36;50.83;;;22.60;;
24153;SDS011;12312;53.362;-1.518;2023-02-13T08:12:20;52.10;;;22.35;;
24153;SDS011;12312;53.362;-1.518;2023-02-13T08:14:46;43.55;;;21.75;;
24153;SDS011;12312;53.362;-1.518;2023-02-13T08:17:12;47.92;;;21.38;;
24153;SDS011;12312;53.362;-1.518;2023-02-13T08:19:37;49.83;;;20.42;;
24153;SDS011;12312;53.362;-1.518;2023-02-13T08:22:03;48.72;;;21.10;;
24153;SDS011;12312;53.362;-1.518;2023-02-13T08:24:28;48.55;;;21.20;;
24153;SDS011;12312;53.362;-1.518;2023-02-13T08:26:56;46.10;;;20.75;;
24153;SDS011;12312;53.362;-1.518;2023-02-13T08:29:22;46.83;;;20.48;;
24153;SDS011;12312;53.362;-1.518;2023-02-13T08:31:47;46.95;;;21.08;;
24153;SDS011;12312;53.362;-1.518;2023-02-13T08:34:13;46.58;;;20.20;;
24153;SDS011;12312;53.362;-1.518;2023-02-13T08:36:39;47.25;;;20.23;;
24153;SDS011;12312;53.362;-1.518;2023-02-13T08:39:05;46.55;;;20.65;;
24153;SDS011;12312;53.362;-1.518;2023-02-13T08:41:37;48.70;;;20.88;;
24153;SDS011;12312;53.362;-1.518;2023-02-13T08:44:03;50.30;;;21.40;;
24153;SDS011;12312;53.362;-1.518;2023-02-13T08:46:29;51.72;;;21.67;;
24153;SDS011;12312;53.362;-1.518;2023-02-13T08:48:54;50.33;;;21.23;;
24153;SDS011;12312;53.362;-1.518;2023-02-13T08:51:25;50.60;;;20.98;;
24153;SDS011;12312;53.362;-1.518;2023-02-13T08:53:51;48.20;;;21.30;;
24153;SDS011;12312;53.362;-1.518;2023-02-13T08:56:18;55.72;;;21.92;;
24153;SDS011;12312;53.362;-1.518;2023-02-13T08:58:46;48.90;;;19.45;;
24153;SDS011;12312;53.362;-1.518;2023-02-13T09:01:13;50.85;;;21.40;;
24153;SDS011;12312;53.362;-1.518;2023-02-13T09:03:39;48.30;;;21.80;;
24153;SDS011;12312;53.362;-1.518;2023-02-13T09:06:08;45.78;;;19.77;;
24153;SDS011;12312;53.362;-1.518;2023-02-13T09:08:36;44.22;;;20.42;;
24153;SDS011;12312;53.362;-1.518;2023-02-13T09:11:03;50.22;;;22.10;;
24153;SDS011;12312;53.362;-1.518;2023-02-13T09:13:31;50.17;;;21.50;;
24153;SDS011;12312;53.362;-1.518;2023-02-13T09:15:59;59.35;;;24.83;;
24153;SDS011;12312;53.362;-1.518;2023-02-13T09:18:25;57.38;;;25.20;;
24153;SDS011;12312;53.362;-1.518;2023-02-13T09:21:08;61.88;;;25.23;;
24153;SDS011;12312;53.362;-1.518;2023-02-13T09:23:36;63.65;;;26.05;;
24153;SDS011;12312;53.362;-1.518;2023-02-13T09:26:05;58.72;;;25.70;;
24153;SDS011;12312;53.362;-1.518;2023-02-13T09:28:32;61.47;;;27.67;;
24153;SDS011;12312;53.362;-1.518;2023-02-13T09:30:59;64.90;;;26.83;;
24153;SDS011;12312;53.362;-1.518;2023-02-13T09:33:28;61.30;;;26.77;;
24153;SDS011;12312;53.362;-1.518;2023-02-13T09:35:57;60.00;;;26.13;;
24153;SDS011;12312;53.362;-1.518;2023-02-13T09:38:22;57.80;;;25.23;;
24153;SDS011;12312;53.362;-1.518;2023-02-13T09:40:52;50.35;;;21.45;;
24153;SDS011;12312;53.362;-1.518;2023-02-13T09:43:27;54.92;;;23.88;;
24153;SDS011;12312;53.362;-1.518;2023-02-13T09:46:08;52.55;;;23.02;;
24153;SDS011;12312;53.362;-1.518;2023-02-13T09:48:38;56.38;;;24.25;;
24153;SDS011;12312;53.362;-1.518;2023-02-13T09:51:12;60.58;;;25.95;;
24153;SDS011;12312;53.362;-1.518;2023-02-13T09:53:40;52.97;;;24.52;;
24153;SDS011;12312;53.362;-1.518;2023-02-13T09:56:20;58.85;;;26.17;;
24153;SDS011;12312;53.362;-1.518;2023-02-13T09:58:57;56.90;;;25.38;;
24153;SDS011;12312;53.362;-1.518;2023-02-13T10:01:29;59.70;;;25.00;;
24153;SDS011;12312;53.362;-1.518;2023-02-13T10:04:07;56.35;;;24.40;;
24153;SDS011;12312;53.362;-1.518;2023-02-13T10:06:38;52.80;;;24.50;;
24153;SDS011;12312;53.362;-1.518;2023-02-13T10:12:07;56.63;;;24.85;;
24153;SDS011;12312;53.362;-1.518;2023-02-13T10:14:49;55.90;;;25.80;;
24153;SDS011;12312;53.362;-1.518;2023-02-13T10:17:34;56.70;;;24.25;;
24153;SDS011;12312;53.362;-1.518;2023-02-13T10:20:09;55.05;;;24.85;;
24153;SDS011;12312;53.362;-1.518;2023-02-13T10:23:08;52.15;;;22.85;;
24153;SDS011;12312;53.362;-1.518;2023-02-13T10:25:57;52.83;;;24.33;;
24153;SDS011;12312;53.362;-1.518;2023-02-13T10:31:00;48.40;;;21.77;;
24153;SDS011;12312;53.362;-1.518;2023-02-13T10:36:15;50.30;;;20.58;;
24153;SDS011;12312;53.362;-1.518;2023-02-13T10:57:13;51.60;;;21.90;;
24153;SDS011;12312;53.362;-1.518;2023-02-13T11:02:30;47.03;;;21.65;;
24153;SDS011;12312;53.362;-1.518;2023-02-13T11:05:22;46.30;;;21.67;;
24153;SDS011;12312;53.362;-1.518;2023-02-13T11:07:48;48.55;;;22.92;;
24153;SDS011;12312;53.362;-1.518;2023-02-13T11:12:40;53.78;;;21.50;;
24153;SDS011;12312;53.362;-1.518;2023-02-13T11:15:07;49.20;;;22.33;;
24153;SDS011;12312;53.362;-1.518;2023-02-13T11:17:50;43.95;;;20.83;;
24153;SDS011;12312;53.362;-1.518;2023-02-13T11:20:26;47.17;;;21.40;;
24153;SDS011;12312;53.362;-1.518;2023-02-13T11:22:52;50.50;;;21.92;;
24153;SDS011;12312;53.362;-1.518;2023-02-13T11:25:20;51.60;;;21.67;;
24153;SDS011;12312;53.362;-1.518;2023-02-13T11:27:48;48.00;;;20.80;;
24153;SDS011;12312;53.362;-1.518;2023-02-13T11:33:00;46.67;;;21.17;;
24153;SDS011;12312;53.362;-1.518;2023-02-13T11:35:35;49.08;;;20.60;;
24153;SDS011;12312;53.362;-1.518;2023-02-13T11:40:45;51.17;;;22.35;;
24153;SDS011;12312;53.362;-1.518;2023-02-13T11:43:16;43.38;;;21.05;;
24153;SDS011;12312;53.362;-1.518;2023-02-13T11:45:46;46.55;;;20.65;;
24153;SDS011;12312;53.362;-1.518;2023-02-13T11:48:25;46.33;;;21.67;;
24153;SDS011;12312;53.362;-1.518;2023-02-13T11:50:51;47.10;;;20.85;;
24153;SDS011;12312;53.362;-1.518;2023-02-13T11:53:18;46.60;;;20.77;;
24153;SDS011;12312;53.362;-1.518;2023-02-13T11:56:05;46.80;;;20.63;;
24153;SDS011;12312;53.362;-1.518;2023-02-13T11:58:34;43.13;;;19.90;;
24153;SDS011;12312;53.362;-1.518;2023-02-13T12:04:03;41.33;;;20.60;;
24153;SDS011;12312;53.362;-1.518;2023-02-13T12:06:31;46.47;;;20.48;;
24153;SDS011;12312;53.362;-1.518;2023-02-13T12:09:04;44.67;;;20.80;;
24153;SDS011;12312;53.362;-1.518;2023-02-13T12:11:46;41.97;;;20.35;;
24153;SDS011;12312;53.362;-1.518;2023-02-13T12:14:18;39.05;;;18.30;;
24153;SDS011;12312;53.362;-1.518;2023-02-13T12:16:53;42.42;;;19.95;;
24153;SDS011;12312;53.362;-1.518;2023-02-13T12:19:40;40.75;;;18.95;;
24153;SDS011;12312;53.362;-1.518;2023-02-13T12:22:10;38.35;;;19.73;;
24153;SDS011;12312;53.362;-1.518;2023-02-13T12:27:53;41.47;;;20.80;;
24153;SDS011;12312;53.362;-1.518;2023-02-13T12:36:20;38.25;;;18.58;;
24153;SDS011;12312;53.362;-1.518;2023-02-13T12:57:04;39.38;;;18.80;;
24153;SDS011;12312;53.362;-1.518;2023-02-13T13:02:26;35.05;;;18.38;;
24153;SDS011;12312;53.362;-1.518;2023-02-13T13:08:13;39.10;;;20.02;;
24153;SDS011;12312;53.362;-1.518;2023-02-13T13:11:06;37.42;;;18.25;;
24153;SDS011;12312;53.362;-1.518;2023-02-13T13:22:10;37.40;;;20.05;;
24153;SDS011;12312;53.362;-1.518;2023-02-13T13:24:48;34.00;;;19.75;;
24153;SDS011;12312;53.362;-1.518;2023-02-13T13:27:43;39.75;;;20.33;;
24153;SDS011;12312;53.362;-1.518;2023-02-13T13:32:40;37.00;;;20.30;;
24153;SDS011;12312;53.362;-1.518;2023-02-13T13:35:15;37.35;;;20.17;;
24153;SDS011;12312;53.362;-1.518;2023-02-13T13:37:45;44.35;;;21.30;;
24153;SDS011;12312;53.362;-1.518;2023-02-13T13:43:09;44.25;;;22.20;;
24153;SDS011;12312;53.362;-1.518;2023-02-13T13:51:19;46.42;;;22.20;;
24153;SDS011;12312;53.362;-1.518;2023-02-13T13:56:44;46.75;;;22.48;;
24153;SDS011;12312;53.362;-1.518;2023-02-13T13:59:19;47.58;;;23.45;;
24153;SDS011;12312;53.362;-1.518;2023-02-13T14:07:43;44.78;;;21.55;;
24153;SDS011;12312;53.362;-1.518;2023-02-13T14:12:59;40.33;;;21.10;;
24153;SDS011;12312;53.362;-1.518;2023-02-13T14:18:00;51.80;;;23.95;;
24153;SDS011;12312;53.362;-1.518;2023-02-13T14:26:09;48.72;;;24.02;;
24153;SDS011;12312;53.362;-1.518;2023-02-13T14:29:27;48.67;;;23.40;;
24153;SDS011;12312;53.362;-1.518;2023-02-13T14:31:36;53.80;;;24.10;;
24153;SDS011;12312;53.362;-1.518;2023-02-13T14:36:46;53.85;;;23.38;;
24153;SDS011;12312;53.362;-1.518;2023-02-13T14:39:30;48.20;;;22.40;;
24153;SDS011;12312;53.362;-1.518;2023-02-13T14:42:03;49.58;;;22.92;;
24153;SDS011;12312;53.362;-1.518;2023-02-13T14:45:00;51.55;;;22.92;;
24153;SDS011;12312;53.362;-1.518;2023-02-13T14:47:32;48.75;;;23.85;;
24153;SDS011;12312;53.362;-1.518;2023-02-13T14:50:05;49.22;;;22.90;;
24153;SDS011;12312;53.362;-1.518;2023-02-13T14:52:33;45.72;;;23.13;;
24153;SDS011;12312;53.362;-1.518;2023-02-13T14:55:06;51.42;;;22.55;;
24153;SDS011;12312;53.362;-1.518;2023-02-13T14:57:48;47.15;;;24.13;;
24153;SDS011;12312;53.362;-1.518;2023-02-13T15:03:14;47.78;;;23.35;;
24153;SDS011;12312;53.362;-1.518;2023-02-13T15:06:25;42.15;;;21.27;;
24153;SDS011;12312;53.362;-1.518;2023-02-13T15:08:53;52.85;;;23.30;;
24153;SDS011;12312;53.362;-1.518;2023-02-13T15:11:37;51.13;;;23.30;;
24153;SDS011;12312;53.362;-1.518;2023-02-13T15:17:07;47.58;;;22.30;;
24153;SDS011;12312;53.362;-1.518;2023-02-13T15:19:43;48.25;;;23.08;;
24153;SDS011;12312;53.362;-1.518;2023-02-13T15:25:22;45.80;;;23.30;;
24153;SDS011;12312;53.362;-1.518;2023-02-13T15:27:53;47.50;;;22.73;;
24153;SDS011;12312;53.362;-1.518;2023-02-13T15:30:24;50.38;;;24.42;;
24153;SDS011;12312;53.362;-1.518;2023-02-13T15:32:56;49.63;;;23.30;;
24153;SDS011;12312;53.362;-1.518;2023-02-13T15:35:24;46.50;;;23.15;;
24153;SDS011;12312;53.362;-1.518;2023-02-13T15:37:52;53.60;;;25.50;;
24153;SDS011;12312;53.362;-1.518;2023-02-13T15:40:23;50.45;;;24.25;;
24153;SDS011;12312;53.362;-1.518;2023-02-13T15:42:52;54.00;;;24.50;;
24153;SDS011;12312;53.362;-1.518;2023-02-13T15:45:19;52.55;;;23.90;;
24153;SDS011;12312;53.362;-1.518;2023-02-13T15:47:46;47.78;;;23.02;;
24153;SDS011;12312;53.362;-1.518;2023-02-13T15:50:15;50.42;;;23.67;;
24153;SDS011;12312;53.362;-1.518;2023-02-13T15:52:41;51.60;;;25.50;;
24153;SDS011;12312;53.362;-1.518;2023-02-13T15:55:21;62.28;;;25.70;;
24153;SDS011;12312;53.362;-1.518;2023-02-13T15:58:02;54.75;;;24.48;;
24153;SDS011;12312;53.362;-1.518;2023-02-13T16:00:35;52.33;;;24.88;;
24153;SDS011;12312;53.362;-1.518;2023-02-13T16:03:05;52.28;;;24.35;;
24153;SDS011;12312;53.362;-1.518;2023-02-13T16:05:37;54.08;;;25.08;;
24153;SDS011;12312;53.362;-1.518;2023-02-13T16:13:37;55.33;;;25.88;;
24153;SDS011;12312;53.362;-1.518;2023-02-13T16:16:06;53.90;;;25.33;;
24153;SDS011;12312;53.362;-1.518;2023-02-13T16:18:35;56.88;;;26.05;;
24153;SDS011;12312;53.362;-1.518;2023-02-13T16:21:01;56.10;;;27.38;;
24153;SDS011;12312;53.362;-1.518;2023-02-13T16:23:30;58.63;;;26.83;;
24153;SDS011;12312;53.362;-1.518;2023-02-13T16:25:59;60.47;;;28.88;;
24153;SDS011;12312;53.362;-1.518;2023-02-13T16:28:28;54.05;;;27.90;;
24153;SDS011;12312;53.362;-1.518;2023-02-13T16:33:31;57.17;;;27.25;;
24153;SDS011;12312;53.362;-1.518;2023-02-13T16:38:34;70.63;;;30.35;;
24153;SDS011;12312;53.362;-1.518;2023-02-13T16:51:36;60.42;;;29.60;;
24153;SDS011;12312;53.362;-1.518;2023-02-13T17:02:16;69.72;;;31.63;;
24153;SDS011;12312;53.362;-1.518;2023-02-13T17:04:50;71.40;;;32.38;;
24153;SDS011;12312;53.362;-1.518;2023-02-13T17:07:26;70.53;;;33.33;;
24153;SDS011;12312;53.362;-1.518;2023-02-13T17:10:03;72.20;;;32.83;;
24153;SDS011;12312;53.362;-1.518;2023-02-13T17:12:33;74.50;;;33.03;;
24153;SDS011;12312;53.362;-1.518;2023-02-13T17:15:01;69.25;;;32.28;;
24153;SDS011;12312;53.362;-1.518;2023-02-13T17:17:28;73.15;;;32.47;;
24153;SDS011;12312;53.362;-1.518;2023-02-13T17:19:55;71.05;;;32.63;;
24153;SDS011;12312;53.362;-1.518;2023-02-13T17:25:33;68.72;;;33.42;;
24153;SDS011;12312;53.362;-1.518;2023-02-13T17:28:14;72.70;;;33.72;;
24153;SDS011;12312;53.362;-1.518;2023-02-13T17:30:49;82.13;;;33.80;;
24153;SDS011;12312;53.362;-1.518;2023-02-13T17:33:20;74.05;;;32.10;;
24153;SDS011;12312;53.362;-1.518;2023-02-13T17:35:51;67.32;;;31.17;;
24153;SDS011;12312;53.362;-1.518;2023-02-13T17:38:17;71.85;;;33.70;;
24153;SDS011;12312;53.362;-1.518;2023-02-13T17:40:43;86.15;;;39.28;;
24153;SDS011;12312;53.362;-1.518;2023-02-13T17:43:10;82.18;;;36.35;;
24153;SDS011;12312;53.362;-1.518;2023-02-13T17:45:36;82.55;;;35.67;;
24153;SDS011;12312;53.362;-1.518;2023-02-13T17:48:02;78.38;;;36.25;;
24153;SDS011;12312;53.362;-1.518;2023-02-13T17:50:30;84.30;;;33.33;;
24153;SDS011;12312;53.362;-1.518;2023-02-13T17:52:57;76.38;;;36.03;;
24153;SDS011;12312;53.362;-1.518;2023-02-13T17:55:27;76.53;;;33.90;;
24153;SDS011;12312;53.362;-1.518;2023-02-13T17:57:54;89.78;;;39.55;;
24153;SDS011;12312;53.362;-1.518;2023-02-13T18:00:21;96.90;;;43.90;;
24153;SDS011;12312;53.362;-1.518;2023-02-13T18:02:51;83.30;;;38.35;;